sensor_id;sensor_type;location;lat;lon;timestamp;pressure;altitude;pressure_sealevel;temperature;humidity
40245;BME280;25963;42.694;23.600;2023-05-20T00:00:24;95492.47;;;12.55;100.00
40245;BME280;25963;42.694;23.600;2023-05-20T00:02:49;95481.44;;;12.58;100.00
40245;BME280;25963;42.694;23.600;2023-05-20T00:05:15;95483.28;;;12.57;100.00
40245;BME280;25963;42.694;23.600;2023-05-20T00:07:40;95487.19;;;12.37;100.00
40245;BME280;25963;42.694;23.600;2023-05-20T00:10:06;95479.00;;;12.38;100.00
40245;BME280;25963;42.694;23.600;2023-05-20T00:12:32;95500.19;;;12.56;100.00
40245;BME280;25963;42.694;23.600;2023-05-20T00:14:59;95482.03;;;12.60;100.00
40245;BME280;25963;42.694;23.600;2023-05-20T00:17:24;95471.03;;;12.45;100.00
40245;BME280;25963;42.694;23.600;2023-05-20T00:19:52;95466.19;;;12.42;100.00
40245;BME280;25963;42.694;23.600;2023-05-20T00:22:18;95466.31;;;12.47;100.00
40245;BME280;25963;42.694;23.600;2023-05-20T00:24:43;95484.09;;;12.58;100.00
40245;BME280;25963;42.694;23.600;2023-05-20T00:27:09;95479.69;;;12.52;100.00
40245;BME280;25963;42.694;23.600;2023-05-20T00:29:34;95475.09;;;12.59;100.00
40245;BME280;25963;42.694;23.600;2023-05-20T00:32:00;95472.69;;;12.57;100.00
40245;BME280;25963;42.694;23.600;2023-05-20T00:34:25;95466.00;;;12.55;100.00
40245;BME280;25963;42.694;23.600;2023-05-20T00:36:51;95461.91;;;12.41;100.00
40245;BME280;25963;42.694;23.600;2023-05-20T00:39:16;95468.13;;;12.46;100.00
40245;BME280;25963;42.694;23.600;2023-05-20T00:41:42;95464.34;;;12.24;100.00
40245;BME280;25963;42.694;23.600;2023-05-20T00:44:07;95480.56;;;12.27;100.00
40245;BME280;25963;42.694;23.600;2023-05-20T00:46:34;95473.06;;;12.24;100.00
40245;BME280;25963;42.694;23.600;2023-05-20T00:48:59;95459.41;;;12.09;100.00
40245;BME280;25963;42.694;23.600;2023-05-20T00:51:25;95476.72;;;12.23;100.00
40245;BME280;25963;42.694;23.600;2023-05-20T00:53:51;95464.16;;;12.00;100.00
40245;BME280;25963;42.694;23.600;2023-05-20T00:56:17;95499.94;;;12.03;100.00
40245;BME280;25963;42.694;23.600;2023-05-20T00:58:43;95468.84;;;11.98;100.00
40245;BME280;25963;42.694;23.600;2023-05-20T01:01:08;95481.38;;;12.09;100.00
40245;BME280;25963;42.694;23.600;2023-05-20T01:03:34;95489.66;;;12.13;100.00
40245;BME280;25963;42.694;23.600;2023-05-20T01:05:59;95468.50;;;11.95;100.00
40245;BME280;25963;42.694;23.600;2023-05-20T01:08:26;95481.03;;;11.74;100.00
40245;BME280;25963;42.694;23.600;2023-05-20T01:11:25;95490.13;;;11.78;100.00
40245;BME280;25963;42.694;23.600;2023-05-20T01:13:59;95477.66;;;11.67;100.00
40245;BME280;25963;42.694;23.600;2023-05-20T01:16:25;95470.34;;;11.62;100.00
40245;BME280;25963;42.694;23.600;2023-05-20T01:18:54;95491.66;;;11.68;100.00
40245;BME280;25963;42.694;23.600;2023-05-20T01:21:22;95469.69;;;11.42;100.00
40245;BME280;25963;42.694;23.600;2023-05-20T01:23:47;95475.84;;;11.36;100.00
40245;BME280;25963;42.694;23.600;2023-05-20T01:26:13;95474.00;;;11.36;100.00
40245;BME280;25963;42.694;23.600;2023-05-20T01:28:40;95462.78;;;11.16;100.00
40245;BME280;25963;42.694;23.600;2023-05-20T01:31:14;95490.75;;;11.24;100.00
40245;BME280;25963;42.694;23.600;2023-05-20T01:33:42;95502.31;;;11.29;100.00
40245;BME280;25963;42.694;23.600;2023-05-20T01:36:07;95483.22;;;11.27;100.00
40245;BME280;25963;42.694;23.600;2023-05-20T01:38:34;95483.31;;;11.14;100.00
40245;BME280;25963;42.694;23.600;2023-05-20T01:41:01;95460.72;;;10.86;100.00
40245;BME280;25963;42.694;23.600;2023-05-20T01:43:29;95480.19;;;10.92;100.00
40245;BME280;25963;42.694;23.600;2023-05-20T01:45:55;95476.91;;;10.96;100.00
40245;BME280;25963;42.694;23.600;2023-05-20T01:48:20;95467.84;;;10.79;100.00
40245;BME280;25963;42.694;23.600;2023-05-20T01:50:46;95484.31;;;10.81;100.00
40245;BME280;25963;42.694;23.600;2023-05-20T01:53:11;95489.16;;;10.84;100.00
40245;BME280;25963;42.694;23.600;2023-05-20T01:55:37;95471.91;;;10.82;100.00
40245;BME280;25963;42.694;23.600;2023-05-20T01:58:03;95483.53;;;10.74;100.00
40245;BME280;25963;42.694;23.600;2023-05-20T02:00:31;95477.03;;;10.70;100.00
40245;BME280;25963;42.694;23.600;2023-05-20T02:02:58;95480.28;;;10.72;100.00
40245;BME280;25963;42.694;23.600;2023-05-20T02:05:23;95465.75;;;10.56;100.00
40245;BME280;25963;42.694;23.600;2023-05-20T02:07:49;95476.63;;;10.73;100.00
40245;BME280;25963;42.694;23.600;2023-05-20T02:10:14;95465.88;;;10.74;100.00
40245;BME280;25963;42.694;23.600;2023-05-20T02:12:39;95471.44;;;10.53;100.00
40245;BME280;25963;42.694;23.600;2023-05-20T02:15:05;95465.34;;;10.59;100.00
40245;BME280;25963;42.694;23.600;2023-05-20T02:17:31;95469.78;;;10.59;100.00
40245;BME280;25963;42.694;23.600;2023-05-20T02:19:56;95472.06;;;10.48;100.00
40245;BME280;25963;42.694;23.600;2023-05-20T02:22:22;95468.66;;;10.41;100.00
40245;BME280;25963;42.694;23.600;2023-05-20T02:24:48;95469.00;;;10.51;100.00
40245;BME280;25963;42.694;23.600;2023-05-20T02:27:13;95460.47;;;10.49;100.00
40245;BME280;25963;42.694;23.600;2023-05-20T02:29:39;95458.88;;;10.48;100.00
40245;BME280;25963;42.694;23.600;2023-05-20T02:32:04;95452.78;;;10.48;100.00
40245;BME280;25963;42.694;23.600;2023-05-20T02:34:31;95462.34;;;10.42;100.00
40245;BME280;25963;42.694;23.600;2023-05-20T02:36:57;95437.25;;;10.26;100.00
40245;BME280;25963;42.694;23.600;2023-05-20T02:39:22;95455.50;;;10.28;100.00
40245;BME280;25963;42.694;23.600;2023-05-20T02:41:47;95454.88;;;10.33;100.00
40245;BME280;25963;42.694;23.600;2023-05-20T02:44:13;95458.72;;;10.17;100.00
40245;BME280;25963;42.694;23.600;2023-05-20T02:46:39;95462.97;;;10.24;100.00
40245;BME280;25963;42.694;23.600;2023-05-20T02:49:04;95463.63;;;10.26;100.00
40245;BME280;25963;42.694;23.600;2023-05-20T02:51:30;95460.78;;;10.15;100.00
40245;BME280;25963;42.694;23.600;2023-05-20T02:53:57;95469.31;;;10.03;100.00
40245;BME280;25963;42.694;23.600;2023-05-20T02:56:23;95466.53;;;9.85;100.00
40245;BME280;25963;42.694;23.600;2023-05-20T02:58:49;95463.06;;;9.91;100.00
40245;BME280;25963;42.694;23.600;2023-05-20T03:01:14;95457.78;;;9.91;100.00
40245;BME280;25963;42.694;23.600;2023-05-20T03:03:40;95471.53;;;10.06;100.00
40245;BME280;25963;42.694;23.600;2023-05-20T03:06:06;95467.06;;;10.07;100.00
40245;BME280;25963;42.694;23.600;2023-05-20T03:08:32;95466.91;;;9.89;100.00
40245;BME280;25963;42.694;23.600;2023-05-20T03:10:58;95485.34;;;10.09;100.00
40245;BME280;25963;42.694;23.600;2023-05-20T03:13:24;95481.88;;;10.01;100.00
40245;BME280;25963;42.694;23.600;2023-05-20T03:15:49;95483.31;;;10.04;100.00
40245;BME280;25963;42.694;23.600;2023-05-20T03:18:15;95481.69;;;10.03;100.00
40245;BME280;25963;42.694;23.600;2023-05-20T03:20:41;95489.78;;;10.01;100.00
40245;BME280;25963;42.694;23.600;2023-05-20T03:23:07;95504.78;;;10.21;100.00
40245;BME280;25963;42.694;23.600;2023-05-20T03:25:33;95487.75;;;10.10;100.00
40245;BME280;25963;42.694;23.600;2023-05-20T03:27:59;95498.50;;;10.15;100.00
40245;BME280;25963;42.694;23.600;2023-05-20T03:30:25;95465.84;;;10.10;100.00
40245;BME280;25963;42.694;23.600;2023-05-20T03:32:52;95458.97;;;10.15;100.00
40245;BME280;25963;42.694;23.600;2023-05-20T03:35:17;95474.13;;;10.20;100.00
40245;BME280;25963;42.694;23.600;2023-05-20T03:37:43;95484.88;;;10.38;100.00
40245;BME280;25963;42.694;23.600;2023-05-20T03:40:09;95478.41;;;10.21;100.00
40245;BME280;25963;42.694;23.600;2023-05-20T03:42:35;95491.34;;;10.42;100.00
40245;BME280;25963;42.694;23.600;2023-05-20T03:45:01;95482.41;;;10.43;100.00
40245;BME280;25963;42.694;23.600;2023-05-20T03:47:27;95488.84;;;10.61;100.00
40245;BME280;25963;42.694;23.600;2023-05-20T03:49:52;95499.75;;;10.78;100.00
40245;BME280;25963;42.694;23.600;2023-05-20T03:52:18;95481.63;;;10.88;100.00
40245;BME280;25963;42.694;23.600;2023-05-20T03:54:43;95467.19;;;10.90;100.00
40245;BME280;25963;42.694;23.600;2023-05-20T03:57:09;95470.59;;;10.97;100.00
40245;BME280;25963;42.694;23.600;2023-05-20T03:59:40;95463.78;;;11.15;100.00
40245;BME280;25963;42.694;23.600;2023-05-20T04:02:06;95484.34;;;11.95;100.00
40245;BME280;25963;42.694;23.600;2023-05-20T04:04:31;95486.38;;;13.03;100.00
40245;BME280;25963;42.694;23.600;2023-05-20T04:06:57;95490.19;;;14.14;100.00
40245;BME280;25963;42.694;23.600;2023-05-20T04:09:25;95491.25;;;15.18;99.64
40245;BME280;25963;42.694;23.600;2023-05-20T04:11:50;95511.00;;;16.35;90.18
40245;BME280;25963;42.694;23.600;2023-05-20T04:14:16;95511.91;;;17.28;80.91
40245;BME280;25963;42.694;23.600;2023-05-20T04:16:45;95522.81;;;18.08;75.89
40245;BME280;25963;42.694;23.600;2023-05-20T04:19:11;95509.56;;;18.71;72.05
40245;BME280;25963;42.694;23.600;2023-05-20T04:21:37;95496.25;;;19.59;66.65
40245;BME280;25963;42.694;23.600;2023-05-20T04:24:02;95498.44;;;19.98;64.00
40245;BME280;25963;42.694;23.600;2023-05-20T04:26:28;95484.19;;;20.59;61.50
40245;BME280;25963;42.694;23.600;2023-05-20T04:28:54;95492.03;;;21.15;58.35
40245;BME280;25963;42.694;23.600;2023-05-20T04:31:25;95496.44;;;21.85;55.50
40245;BME280;25963;42.694;23.600;2023-05-20T04:33:54;95487.81;;;22.22;54.61
40245;BME280;25963;42.694;23.600;2023-05-20T04:36:19;95484.06;;;22.76;51.34
40245;BME280;25963;42.694;23.600;2023-05-20T04:38:46;95490.84;;;22.93;50.68
40245;BME280;25963;42.694;23.600;2023-05-20T04:41:12;95502.75;;;22.87;50.30
40245;BME280;25963;42.694;23.600;2023-05-20T04:43:38;95494.41;;;23.12;50.09
40245;BME280;25963;42.694;23.600;2023-05-20T04:46:04;95506.09;;;23.64;49.22
40245;BME280;25963;42.694;23.600;2023-05-20T04:48:34;95509.75;;;23.74;48.00
40245;BME280;25963;42.694;23.600;2023-05-20T04:50:59;95506.44;;;24.14;48.67
40245;BME280;25963;42.694;23.600;2023-05-20T04:53:25;95503.84;;;24.42;46.16
40245;BME280;25963;42.694;23.600;2023-05-20T04:55:54;95511.44;;;24.68;46.43
40245;BME280;25963;42.694;23.600;2023-05-20T04:58:21;95491.38;;;24.74;46.20
40245;BME280;25963;42.694;23.600;2023-05-20T05:00:49;95491.78;;;24.95;46.96
40245;BME280;25963;42.694;23.600;2023-05-20T05:03:15;95491.09;;;25.17;44.66
40245;BME280;25963;42.694;23.600;2023-05-20T05:05:40;95501.72;;;25.13;43.63
40245;BME280;25963;42.694;23.600;2023-05-20T05:08:07;95497.81;;;25.19;45.71
40245;BME280;25963;42.694;23.600;2023-05-20T05:10:33;95496.59;;;25.25;46.93
40245;BME280;25963;42.694;23.600;2023-05-20T05:12:59;95476.41;;;25.23;43.75
40245;BME280;25963;42.694;23.600;2023-05-20T05:15:25;95470.84;;;25.42;46.69
40245;BME280;25963;42.694;23.600;2023-05-20T05:17:51;95473.41;;;25.61;47.50
40245;BME280;25963;42.694;23.600;2023-05-20T05:20:17;95490.25;;;25.80;46.66
40245;BME280;25963;42.694;23.600;2023-05-20T05:22:43;95488.31;;;25.94;46.03
40245;BME280;25963;42.694;23.600;2023-05-20T05:25:09;95494.69;;;25.99;45.92
40245;BME280;25963;42.694;23.600;2023-05-20T05:27:35;95485.63;;;25.58;44.70
40245;BME280;25963;42.694;23.600;2023-05-20T05:30:02;95506.44;;;25.58;44.79
40245;BME280;25963;42.694;23.600;2023-05-20T05:32:28;95495.81;;;25.61;46.01
40245;BME280;25963;42.694;23.600;2023-05-20T05:34:53;95500.84;;;25.90;49.00
40245;BME280;25963;42.694;23.600;2023-05-20T05:37:19;95489.72;;;25.92;46.66
40245;BME280;25963;42.694;23.600;2023-05-20T05:39:45;95483.34;;;26.10;46.54
40245;BME280;25963;42.694;23.600;2023-05-20T05:42:10;95481.63;;;25.92;45.60
40245;BME280;25963;42.694;23.600;2023-05-20T05:44:36;95475.56;;;25.36;45.34
40245;BME280;25963;42.694;23.600;2023-05-20T05:47:02;95496.44;;;25.81;46.95
40245;BME280;25963;42.694;23.600;2023-05-20T05:49:27;95478.56;;;25.71;45.87
40245;BME280;25963;42.694;23.600;2023-05-20T05:51:54;95467.69;;;25.62;46.20
40245;BME280;25963;42.694;23.600;2023-05-20T05:54:19;95455.59;;;25.60;46.21
40245;BME280;25963;42.694;23.600;2023-05-20T05:56:45;95487.16;;;25.37;48.44
40245;BME280;25963;42.694;23.600;2023-05-20T05:59:11;95478.88;;;25.33;51.33
40245;BME280;25963;42.694;23.600;2023-05-20T06:01:36;95464.88;;;25.31;51.43
40245;BME280;25963;42.694;23.600;2023-05-20T06:04:02;95487.59;;;25.16;49.93
40245;BME280;25963;42.694;23.600;2023-05-20T06:06:28;95469.59;;;25.25;50.34
40245;BME280;25963;42.694;23.600;2023-05-20T06:08:53;95486.88;;;25.24;51.81
40245;BME280;25963;42.694;23.600;2023-05-20T06:11:20;95469.56;;;25.12;48.79
40245;BME280;25963;42.694;23.600;2023-05-20T06:13:45;95476.06;;;25.38;56.44
40245;BME280;25963;42.694;23.600;2023-05-20T06:16:11;95473.28;;;25.30;53.12
40245;BME280;25963;42.694;23.600;2023-05-20T06:18:36;95470.00;;;25.05;56.45
40245;BME280;25963;42.694;23.600;2023-05-20T06:21:02;95479.09;;;24.95;52.22
40245;BME280;25963;42.694;23.600;2023-05-20T06:23:27;95463.50;;;24.65;52.52
40245;BME280;25963;42.694;23.600;2023-05-20T06:25:57;95479.28;;;24.85;50.97
40245;BME280;25963;42.694;23.600;2023-05-20T06:28:23;95485.69;;;25.17;53.01
40245;BME280;25963;42.694;23.600;2023-05-20T06:30:48;95474.56;;;25.32;53.16
40245;BME280;25963;42.694;23.600;2023-05-20T06:33:14;95476.66;;;25.49;49.52
40245;BME280;25963;42.694;23.600;2023-05-20T06:35:39;95467.19;;;25.60;50.53
40245;BME280;25963;42.694;23.600;2023-05-20T06:38:05;95458.19;;;25.65;54.78
40245;BME280;25963;42.694;23.600;2023-05-20T06:40:30;95458.78;;;25.62;48.81
40245;BME280;25963;42.694;23.600;2023-05-20T06:42:56;95455.22;;;25.75;51.09
40245;BME280;25963;42.694;23.600;2023-05-20T06:47:56;95443.28;;;25.90;50.17
40245;BME280;25963;42.694;23.600;2023-05-20T06:50:21;95435.66;;;25.33;50.21
40245;BME280;25963;42.694;23.600;2023-05-20T06:52:46;95447.78;;;25.08;52.99
40245;BME280;25963;42.694;23.600;2023-05-20T06:55:12;95437.75;;;25.36;49.79
40245;BME280;25963;42.694;23.600;2023-05-20T06:57:37;95424.50;;;25.26;48.77
40245;BME280;25963;42.694;23.600;2023-05-20T07:00:04;95420.03;;;25.44;55.27
40245;BME280;25963;42.694;23.600;2023-05-20T07:02:31;95418.75;;;25.41;49.57
40245;BME280;25963;42.694;23.600;2023-05-20T07:04:57;95428.34;;;25.34;51.81
40245;BME280;25963;42.694;23.600;2023-05-20T07:07:22;95430.59;;;25.32;49.71
40245;BME280;25963;42.694;23.600;2023-05-20T07:09:48;95434.06;;;25.32;50.31
40245;BME280;25963;42.694;23.600;2023-05-20T07:12:13;95432.31;;;24.58;52.86
40245;BME280;25963;42.694;23.600;2023-05-20T07:14:39;95436.38;;;23.82;49.09
40245;BME280;25963;42.694;23.600;2023-05-20T07:17:04;95443.78;;;24.36;54.72
40245;BME280;25963;42.694;23.600;2023-05-20T07:19:30;95437.41;;;24.46;49.38
40245;BME280;25963;42.694;23.600;2023-05-20T07:21:56;95451.91;;;24.50;57.43
40245;BME280;25963;42.694;23.600;2023-05-20T07:24:21;95446.72;;;24.81;57.94
40245;BME280;25963;42.694;23.600;2023-05-20T07:26:46;95430.91;;;24.89;52.58
40245;BME280;25963;42.694;23.600;2023-05-20T07:29:12;95429.31;;;25.01;51.61
40245;BME280;25963;42.694;23.600;2023-05-20T07:31:38;95433.31;;;25.04;53.30
40245;BME280;25963;42.694;23.600;2023-05-20T07:34:03;95442.88;;;25.24;52.26
40245;BME280;25963;42.694;23.600;2023-05-20T07:36:29;95442.13;;;24.82;52.63
40245;BME280;25963;42.694;23.600;2023-05-20T07:38:55;95436.31;;;25.02;50.70
40245;BME280;25963;42.694;23.600;2023-05-20T07:41:21;95434.72;;;24.74;51.49
40245;BME280;25963;42.694;23.600;2023-05-20T07:43:46;95427.41;;;24.88;49.19
40245;BME280;25963;42.694;23.600;2023-05-20T07:46:12;95407.94;;;25.19;51.41
40245;BME280;25963;42.694;23.600;2023-05-20T07:48:37;95428.81;;;25.49;50.26
40245;BME280;25963;42.694;23.600;2023-05-20T07:51:03;95426.50;;;25.20;53.33
40245;BME280;25963;42.694;23.600;2023-05-20T07:53:28;95437.63;;;25.19;51.77
40245;BME280;25963;42.694;23.600;2023-05-20T07:55:54;95444.63;;;25.42;48.89
40245;BME280;25963;42.694;23.600;2023-05-20T07:58:20;95444.50;;;25.25;52.24
40245;BME280;25963;42.694;23.600;2023-05-20T08:00:46;95440.31;;;24.91;50.50
40245;BME280;25963;42.694;23.600;2023-05-20T08:03:11;95421.31;;;25.10;49.17
40245;BME280;25963;42.694;23.600;2023-05-20T08:05:39;95430.84;;;25.44;53.21
40245;BME280;25963;42.694;23.600;2023-05-20T08:08:05;95423.03;;;25.42;52.28
40245;BME280;25963;42.694;23.600;2023-05-20T08:10:31;95426.31;;;25.76;55.56
40245;BME280;25963;42.694;23.600;2023-05-20T08:12:56;95432.53;;;25.76;49.98
40245;BME280;25963;42.694;23.600;2023-05-20T08:15:22;95423.56;;;25.67;50.56
40245;BME280;25963;42.694;23.600;2023-05-20T08:17:47;95422.16;;;25.33;45.48
40245;BME280;25963;42.694;23.600;2023-05-20T08:20:13;95415.59;;;25.12;53.62
40245;BME280;25963;42.694;23.600;2023-05-20T08:22:39;95432.28;;;25.27;44.35
40245;BME280;25963;42.694;23.600;2023-05-20T08:25:08;95432.94;;;24.69;47.43
40245;BME280;25963;42.694;23.600;2023-05-20T08:27:37;95426.75;;;24.69;45.77
40245;BME280;25963;42.694;23.600;2023-05-20T08:30:03;95419.75;;;24.81;49.66
40245;BME280;25963;42.694;23.600;2023-05-20T08:32:32;95415.28;;;24.17;45.38
40245;BME280;25963;42.694;23.600;2023-05-20T08:34:57;95384.41;;;23.62;46.11
40245;BME280;25963;42.694;23.600;2023-05-20T08:37:40;95399.63;;;23.72;46.75
40245;BME280;25963;42.694;23.600;2023-05-20T08:40:07;95386.97;;;24.33;47.26
40245;BME280;25963;42.694;23.600;2023-05-20T08:42:34;95390.19;;;24.63;49.07
40245;BME280;25963;42.694;23.600;2023-05-20T08:44:59;95395.94;;;24.14;50.12
40245;BME280;25963;42.694;23.600;2023-05-20T08:47:26;95391.41;;;23.96;49.33
40245;BME280;25963;42.694;23.600;2023-05-20T08:49:51;95410.84;;;23.93;46.50
40245;BME280;25963;42.694;23.600;2023-05-20T08:52:20;95376.03;;;23.64;49.98
40245;BME280;25963;42.694;23.600;2023-05-20T08:54:48;95388.56;;;24.20;49.86
40245;BME280;25963;42.694;23.600;2023-05-20T08:57:14;95421.09;;;24.24;43.51
40245;BME280;25963;42.694;23.600;2023-05-20T08:59:44;95415.41;;;24.25;45.93
40245;BME280;25963;42.694;23.600;2023-05-20T09:02:11;95395.53;;;24.21;47.10
40245;BME280;25963;42.694;23.600;2023-05-20T09:04:37;95409.47;;;23.96;48.26
40245;BME280;25963;42.694;23.600;2023-05-20T09:07:03;95394.75;;;23.74;49.12
40245;BME280;25963;42.694;23.600;2023-05-20T09:09:31;95412.03;;;23.87;50.62
40245;BME280;25963;42.694;23.600;2023-05-20T09:11:58;95398.16;;;24.40;49.02
40245;BME280;25963;42.694;23.600;2023-05-20T09:14:24;95376.47;;;24.18;43.25
40245;BME280;25963;42.694;23.600;2023-05-20T09:16:51;95387.50;;;23.37;45.22
40245;BME280;25963;42.694;23.600;2023-05-20T09:19:17;95375.84;;;23.41;47.32
40245;BME280;25963;42.694;23.600;2023-05-20T09:21:45;95379.00;;;23.11;49.76
40245;BME280;25963;42.694;23.600;2023-05-20T09:24:11;95385.03;;;23.40;48.55
40245;BME280;25963;42.694;23.600;2023-05-20T09:26:37;95382.91;;;23.37;52.37
40245;BME280;25963;42.694;23.600;2023-05-20T09:29:02;95387.53;;;22.94;49.79
40245;BME280;25963;42.694;23.600;2023-05-20T09:31:30;95371.44;;;23.32;48.44
40245;BME280;25963;42.694;23.600;2023-05-20T09:33:59;95370.13;;;23.81;48.29
40245;BME280;25963;42.694;23.600;2023-05-20T09:36:27;95380.94;;;23.95;45.75
40245;BME280;25963;42.694;23.600;2023-05-20T09:38:58;95375.94;;;24.02;47.81
40245;BME280;25963;42.694;23.600;2023-05-20T09:41:24;95366.38;;;24.09;47.92
40245;BME280;25963;42.694;23.600;2023-05-20T09:43:52;95347.38;;;23.87;47.91
40245;BME280;25963;42.694;23.600;2023-05-20T09:46:18;95352.28;;;23.85;46.32
40245;BME280;25963;42.694;23.600;2023-05-20T09:48:44;95349.91;;;23.97;45.63
40245;BME280;25963;42.694;23.600;2023-05-20T09:51:11;95355.72;;;23.72;49.25
40245;BME280;25963;42.694;23.600;2023-05-20T09:53:37;95326.41;;;23.84;48.59
40245;BME280;25963;42.694;23.600;2023-05-20T09:56:03;95319.38;;;23.88;45.76
40245;BME280;25963;42.694;23.600;2023-05-20T09:58:29;95320.25;;;23.83;46.39
40245;BME280;25963;42.694;23.600;2023-05-20T10:00:54;95315.44;;;23.80;47.09
40245;BME280;25963;42.694;23.600;2023-05-20T10:03:21;95338.72;;;24.04;48.27
40245;BME280;25963;42.694;23.600;2023-05-20T10:09:09;95321.97;;;24.07;44.93
40245;BME280;25963;42.694;23.600;2023-05-20T10:11:57;95322.16;;;24.10;44.39
40245;BME280;25963;42.694;23.600;2023-05-20T10:14:58;95325.47;;;23.94;49.63
40245;BME280;25963;42.694;23.600;2023-05-20T10:20:10;95321.03;;;22.81;45.50
40245;BME280;25963;42.694;23.600;2023-05-20T10:22:36;95310.06;;;23.15;44.52
40245;BME280;25963;42.694;23.600;2023-05-20T10:25:04;95299.09;;;23.11;45.70
40245;BME280;25963;42.694;23.600;2023-05-20T10:27:44;95287.94;;;23.51;46.46
40245;BME280;25963;42.694;23.600;2023-05-20T10:30:20;95288.22;;;23.82;46.76
40245;BME280;25963;42.694;23.600;2023-05-20T10:32:54;95312.91;;;24.03;44.47
40245;BME280;25963;42.694;23.600;2023-05-20T10:35:25;95297.69;;;23.93;43.72
40245;BME280;25963;42.694;23.600;2023-05-20T10:37:52;95279.75;;;23.88;44.13
40245;BME280;25963;42.694;23.600;2023-05-20T10:40:20;95291.13;;;24.27;46.14
40245;BME280;25963;42.694;23.600;2023-05-20T10:42:46;95287.13;;;24.38;48.31
40245;BME280;25963;42.694;23.600;2023-05-20T10:45:26;95285.94;;;24.17;42.31
40245;BME280;25963;42.694;23.600;2023-05-20T10:47:56;95301.31;;;24.02;44.34
40245;BME280;25963;42.694;23.600;2023-05-20T10:50:33;95278.25;;;24.10;47.92
40245;BME280;25963;42.694;23.600;2023-05-20T10:53:06;95270.78;;;24.21;46.65
40245;BME280;25963;42.694;23.600;2023-05-20T10:55:37;95280.53;;;24.17;45.22
40245;BME280;25963;42.694;23.600;2023-05-20T10:58:03;95276.06;;;23.98;45.47
40245;BME280;25963;42.694;23.600;2023-05-20T11:00:29;95274.97;;;24.27;44.80
40245;BME280;25963;42.694;23.600;2023-05-20T11:02:55;95268.94;;;23.61;46.44
40245;BME280;25963;42.694;23.600;2023-05-20T11:05:21;95281.94;;;24.14;44.80
40245;BME280;25963;42.694;23.600;2023-05-20T11:07:47;95278.66;;;23.43;45.79
40245;BME280;25963;42.694;23.600;2023-05-20T11:10:12;95268.97;;;23.75;45.70
40245;BME280;25963;42.694;23.600;2023-05-20T11:12:38;95274.75;;;24.09;43.04
40245;BME280;25963;42.694;23.600;2023-05-20T11:15:04;95260.19;;;24.38;42.73
40245;BME280;25963;42.694;23.600;2023-05-20T11:17:29;95266.75;;;24.32;44.89
40245;BME280;25963;42.694;23.600;2023-05-20T11:19:55;95242.28;;;24.28;42.83
40245;BME280;25963;42.694;23.600;2023-05-20T11:22:25;95245.22;;;24.04;42.44
40245;BME280;25963;42.694;23.600;2023-05-20T11:24:51;95253.19;;;23.96;43.02
40245;BME280;25963;42.694;23.600;2023-05-20T11:27:17;95258.56;;;23.68;43.17
40245;BME280;25963;42.694;23.600;2023-05-20T11:29:43;95254.72;;;23.28;46.05
40245;BME280;25963;42.694;23.600;2023-05-20T11:32:08;95240.44;;;23.27;44.89
40245;BME280;25963;42.694;23.600;2023-05-20T11:34:35;95261.03;;;23.18;44.38
40245;BME280;25963;42.694;23.600;2023-05-20T11:37:00;95254.44;;;23.43;46.37
40245;BME280;25963;42.694;23.600;2023-05-20T11:39:29;95254.72;;;23.41;44.75
40245;BME280;25963;42.694;23.600;2023-05-20T11:41:56;95247.06;;;23.49;41.57
40245;BME280;25963;42.694;23.600;2023-05-20T11:44:23;95257.19;;;23.98;43.99
40245;BME280;25963;42.694;23.600;2023-05-20T11:46:48;95239.91;;;24.27;42.93
40245;BME280;25963;42.694;23.600;2023-05-20T11:49:15;95257.75;;;23.67;43.82
40245;BME280;25963;42.694;23.600;2023-05-20T11:51:46;95230.28;;;23.38;47.24
40245;BME280;25963;42.694;23.600;2023-05-20T11:54:12;95246.03;;;23.91;49.18
40245;BME280;25963;42.694;23.600;2023-05-20T11:56:43;95252.81;;;24.02;48.40
40245;BME280;25963;42.694;23.600;2023-05-20T11:59:13;95194.03;;;23.49;44.58
40245;BME280;25963;42.694;23.600;2023-05-20T12:01:39;95253.81;;;22.99;47.41
40245;BME280;25963;42.694;23.600;2023-05-20T12:04:11;95269.63;;;22.82;46.25
40245;BME280;25963;42.694;23.600;2023-05-20T12:06:59;95240.81;;;22.07;45.99
40245;BME280;25963;42.694;23.600;2023-05-20T12:09:28;95224.63;;;21.69;44.21
40245;BME280;25963;42.694;23.600;2023-05-20T12:11:53;95287.16;;;21.35;46.91
40245;BME280;25963;42.694;23.600;2023-05-20T12:14:23;95273.88;;;21.20;48.86
40245;BME280;25963;42.694;23.600;2023-05-20T12:16:51;95295.75;;;21.42;50.82
40245;BME280;25963;42.694;23.600;2023-05-20T12:19:20;95263.38;;;21.58;49.03
40245;BME280;25963;42.694;23.600;2023-05-20T12:21:48;95291.50;;;21.31;48.39
40245;BME280;25963;42.694;23.600;2023-05-20T12:24:17;95282.28;;;21.13;48.83
40245;BME280;25963;42.694;23.600;2023-05-20T12:26:42;95272.91;;;20.77;51.75
40245;BME280;25963;42.694;23.600;2023-05-20T12:29:08;95296.50;;;20.69;50.43
40245;BME280;25963;42.694;23.600;2023-05-20T12:31:33;95296.47;;;20.80;53.32
40245;BME280;25963;42.694;23.600;2023-05-20T12:33:58;95276.28;;;20.87;52.23
40245;BME280;25963;42.694;23.600;2023-05-20T12:36:24;95275.16;;;20.49;51.36
40245;BME280;25963;42.694;23.600;2023-05-20T12:38:50;95288.47;;;20.20;53.69
40245;BME280;25963;42.694;23.600;2023-05-20T12:41:16;95270.28;;;20.12;56.81
40245;BME280;25963;42.694;23.600;2023-05-20T12:43:41;95287.69;;;20.64;55.90
40245;BME280;25963;42.694;23.600;2023-05-20T12:46:07;95264.53;;;20.34;57.22
40245;BME280;25963;42.694;23.600;2023-05-20T12:48:32;95273.09;;;20.36;55.85
40245;BME280;25963;42.694;23.600;2023-05-20T12:50:58;95276.25;;;20.53;58.69
40245;BME280;25963;42.694;23.600;2023-05-20T12:53:24;95264.66;;;20.63;58.96